Pagrindinis puslapis
METAR-TAF:

METAR-TAF

Oro uostai :

Marilija, San Paulas, Brazilija

platuma: 22-11-44S, ilguma: 049-55-37W, Aukštis: 647 m

Dabartinis oras

Ataskaita buvo paskelbta 4 valandos ir 26 minutes, ne 19:00 UTC
Vėjas 8 kt iš Šiaurės
Temperatūra 34°C
Drėgmė 28%
Slėgis 1015 hPa
Matomumas 10 km arba daugiau
nėra debesų žemiau 1500 m ir nėra kamuolinių lietaus debesų

METAR: SBML 161900Z 01008KT CAVOK 34/13 Q1015

Laikas: 20:26 (23:26 UTC)


TAF: trūkstamas

Orai ataskaitas ir orų prognozės (METAR, TAF).

turimą stotys yra geltonos ir raudonos taškus žemėlapyje.

Perkelti pele per norėdami pamatyti stoties vardą.

Tada spustelėkite, norėdami matyti oro stebėjimo ir prognozės.

Norėdami pakeisti žemėlapį: spustelėkite ant žalios mygtukų su juodo kryžiaus žemyn,; žalią mygtuką su brūkšneliu, jei norite nutolinti; arba žalių rodyklių gretimoms žemėlapius.


METAR-TAF: